Time;durP1;ratioP1;P1;durP2;ratioP2;P2;SDS_P1;SDS_P2;PMS_P1;PMS_P2;Temp;Humidity;BMP_temperature;BMP_pressure;BME280_temperature;BME280_humidity;BME280_pressure;Samples;Min_cycle;Max_cycle;Signal;HPM_P1;HPM_P2
2023/02/08 00:00:54;;;;;;;50.80;22.48;;;;;;;-7.13;100.00;100822.06;4190643;28;20076;-74
2023/02/08 00:02:55;;;;;;;56.05;25.33;;;;;;;-7.13;100.00;100810.50;4189294;28;20293;-74
2023/02/08 00:04:55;;;;;;;55.20;25.55;;;;;;;-7.13;100.00;100802.41;4190018;28;20040;-74
2023/02/08 00:06:55;;;;;;;52.40;23.70;;;;;;;-7.17;100.00;100807.41;4191147;28;20048;-74
2023/02/08 00:08:56;;;;;;;50.00;22.80;;;;;;;-7.16;100.00;100800.97;4193324;28;20037;-74
2023/02/08 00:10:56;;;;;;;56.97;22.77;;;;;;;-7.13;100.00;100810.50;4192889;28;20047;-74
2023/02/08 00:12:57;;;;;;;53.28;23.30;;;;;;;-7.11;100.00;100809.28;4191816;28;20036;-74
2023/02/08 00:14:57;;;;;;;50.10;21.85;;;;;;;-7.24;100.00;100806.56;4193331;28;20104;-74
2023/02/08 00:16:57;;;;;;;49.47;22.50;;;;;;;-7.29;100.00;100814.41;4196651;28;20123;-74
2023/02/08 00:18:58;;;;;;;49.13;21.33;;;;;;;-7.28;100.00;100808.00;4193140;28;20105;-74
2023/02/08 00:20:58;;;;;;;49.20;21.70;;;;;;;-7.32;100.00;100806.75;4193296;28;20053;-74
2023/02/08 00:22:58;;;;;;;44.28;21.52;;;;;;;-7.31;100.00;100802.19;4191644;28;20452;-74
2023/02/08 00:24:59;;;;;;;51.97;22.88;;;;;;;-7.27;100.00;100803.47;4192954;28;20036;-74
2023/02/08 00:26:59;;;;;;;45.95;21.27;;;;;;;-7.34;100.00;100805.31;4192670;28;20048;-74
2023/02/08 00:28:59;;;;;;;49.78;20.98;;;;;;;-7.46;100.00;100795.13;4192416;28;20484;-74
2023/02/08 00:31:00;;;;;;;45.75;20.27;;;;;;;-7.56;100.00;100800.06;4192655;28;20117;-74
2023/02/08 00:33:01;;;;;;;41.65;18.75;;;;;;;-7.58;100.00;100804.00;4192086;28;20060;-74
2023/02/08 00:35:01;;;;;;;45.88;21.58;;;;;;;-7.59;100.00;100805.88;4193732;28;20044;-74
2023/02/08 00:37:02;;;;;;;47.88;20.77;;;;;;;-7.59;100.00;100807.72;4193077;28;20052;-74
2023/02/08 00:39:02;;;;;;;44.70;21.02;;;;;;;-7.46;100.00;100802.38;4197944;28;20127;-74
2023/02/08 00:41:03;;;;;;;45.72;20.58;;;;;;;-7.46;100.00;100800.50;4192711;28;20472;-74
2023/02/08 00:43:04;;;;;;;52.70;23.63;;;;;;;-7.55;100.00;100798.22;4191752;28;20131;-74
2023/02/08 00:45:05;;;;;;;47.50;21.75;;;;;;;-7.69;100.00;100803.56;4191904;28;20117;-74
2023/02/08 00:47:05;;;;;;;53.17;23.50;;;;;;;-7.84;100.00;100800.22;4192720;28;20526;-74
2023/02/08 00:49:05;;;;;;;57.70;24.10;;;;;;;-7.92;100.00;100806.59;4193072;28;20534;-74
2023/02/08 00:51:09;;;;;;;54.10;24.33;;;;;;;-7.98;100.00;100793.13;4192081;28;20044;-74
2023/02/08 00:53:09;;;;;;;52.22;22.55;;;;;;;-8.05;100.00;100795.78;4192427;28;20040;-74
2023/02/08 00:55:10;;;;;;;55.00;21.52;;;;;;;-8.08;100.00;100801.56;4192443;28;20370;-74
2023/02/08 00:57:10;;;;;;;51.40;22.98;;;;;;;-8.11;100.00;100804.63;4193971;28;20041;-74
2023/02/08 00:59:10;;;;;;;58.85;24.35;;;;;;;-8.03;100.00;100812.50;4193283;28;20135;-74
2023/02/08 01:01:12;;;;;;;60.45;25.88;;;;;;;-7.94;100.00;100816.72;4192412;28;20121;-74
2023/02/08 01:03:12;;;;;;;55.75;25.58;;;;;;;-7.81;100.00;100812.41;4193963;28;20127;-74
2023/02/08 01:05:12;;;;;;;63.47;26.48;;;;;;;-7.81;100.00;100804.34;4192986;28;20075;-74
2023/02/08 01:07:13;;;;;;;60.50;24.05;;;;;;;-7.71;100.00;100808.28;4191003;28;20148;-74
2023/02/08 01:09:13;;;;;;;60.28;26.15;;;;;;;-7.69;100.00;100803.56;4197641;28;20052;-74
2023/02/08 01:11:17;;;;;;;61.45;26.35;;;;;;;-7.64;100.00;100811.00;4190916;28;20033;-74
2023/02/08 01:13:17;;;;;;;67.38;27.05;;;;;;;-7.67;100.00;100812.25;4191103;28;20094;-74
2023/02/08 01:15:18;;;;;;;63.33;28.50;;;;;;;-7.73;100.00;100809.53;4192446;28;20492;-74
2023/02/08 01:17:18;;;;;;;65.68;28.30;;;;;;;-7.71;100.00;100810.97;4192333;28;20052;-74
2023/02/08 01:19:18;;;;;;;75.68;28.65;;;;;;;-7.64;100.00;100819.06;4191469;28;20068;-74
2023/02/08 01:21:22;;;;;;;70.13;27.92;;;;;;;-7.63;100.00;100813.50;4192110;28;20036;-74
2023/02/08 01:23:22;;;;;;;67.22;28.60;;;;;;;-7.59;100.00;100811.25;4191245;28;20048;-74
2023/02/08 01:25:22;;;;;;;71.50;28.73;;;;;;;-7.59;100.00;100800.50;4191881;28;20036;-74
2023/02/08 01:27:23;;;;;;;63.90;27.30;;;;;;;-7.63;100.00;100810.81;4192395;28;20490;-74
2023/02/08 01:29:24;;;;;;;58.55;25.63;;;;;;;-7.71;100.00;100804.78;4191604;28;20040;-74
2023/02/08 01:31:28;;;;;;;63.78;25.65;;;;;;;-7.69;100.00;100816.19;4191991;28;20052;-74
2023/02/08 01:33:28;;;;;;;54.30;25.45;;;;;;;-7.70;100.00;100809.94;4191082;28;20400;-74
2023/02/08 01:35:29;;;;;;;60.97;25.20;;;;;;;-7.76;100.00;100807.25;4191700;28;20055;-74
2023/02/08 01:37:29;;;;;;;50.75;22.70;;;;;;;-7.80;100.00;100806.81;4191857;28;20049;-73
2023/02/08 01:39:29;;;;;;;49.08;22.50;;;;;;;-7.86;100.00;100801.41;4192140;28;20032;-74
2023/02/08 01:41:34;;;;;;;54.90;23.67;;;;;;;-7.83;100.00;100815.28;4190897;28;20415;-74
2023/02/08 01:44:01;;;;;;;49.90;23.15;;;;;;;-7.84;100.00;100815.50;4190125;28;20128;-74
2023/02/08 01:46:01;;;;;;;52.10;23.15;;;;;;;-7.86;100.00;100818.41;4190782;28;20076;-74
2023/02/08 01:48:06;;;;;;;55.55;24.85;;;;;;;-7.86;100.00;100809.47;4192316;28;20067;-74
2023/02/08 01:50:07;;;;;;;59.65;26.13;;;;;;;-7.87;100.00;100811.34;4193360;28;20047;-74
2023/02/08 01:52:18;;;;;;;56.55;25.63;;;;;;;-7.72;100.00;100816.56;4191246;28;20101;-74
2023/02/08 01:54:20;;;;;;;65.50;27.85;;;;;;;-7.66;100.00;100818.47;4191114;28;20377;-74
2023/02/08 01:56:27;;;;;;;58.55;26.85;;;;;;;-7.70;100.00;100809.94;4191672;28;20437;-74
2023/02/08 01:58:31;;;;;;;56.88;25.13;;;;;;;-7.69;100.00;100817.00;4191484;28;20241;-74
2023/02/08 02:00:31;;;;;;;68.13;27.55;;;;;;;-7.68;100.00;100807.91;4190158;28;20056;-74
2023/02/08 02:02:33;;;;;;;85.90;27.25;;;;;;;-7.76;100.00;100797.34;4190347;28;20122;-74
2023/02/08 02:04:34;;;;;;;73.18;28.33;;;;;;;-7.68;100.00;100804.41;4191428;28;20106;-74
2023/02/08 02:06:41;;;;;;;72.70;30.52;;;;;;;-7.63;100.00;100804.59;4191156;28;20469;-74
2023/02/08 02:09:08;;;;;;;67.95;28.60;;;;;;;-7.50;100.00;100799.28;4196847;28;20041;-74
2023/02/08 02:11:09;;;;;;;68.18;28.23;;;;;;;-7.46;100.00;100800.50;4190285;28;20036;-74
2023/02/08 02:13:13;;;;;;;61.75;28.67;;;;;;;-7.41;100.00;100794.53;4190922;28;20070;-74
2023/02/08 02:15:14;;;;;;;77.20;29.50;;;;;;;-7.40;100.00;100802.38;4189903;28;20048;-74
2023/02/08 02:17:17;;;;;;;82.05;27.05;;;;;;;-7.37;100.00;100799.28;4191886;28;20059;-74
2023/02/08 02:19:47;;;;;;;72.43;27.80;;;;;;;-7.34;100.00;100798.06;4189856;28;20036;-74
2023/02/08 02:22:00;;;;;;;54.83;24.48;;;;;;;-7.30;100.00;100796.59;4190607;28;20048;-74
2023/02/08 02:24:16;;;;;;;57.17;26.30;;;;;;;-7.33;100.00;100796.19;4189851;28;20119;-74
2023/02/08 02:26:38;;;;;;;80.53;26.33;;;;;;;-7.33;100.00;100801.56;4190457;28;20389;-74
2023/02/08 02:28:52;;;;;;;74.88;26.35;;;;;;;-7.40;100.00;100796.19;4190224;28;20170;-74
2023/02/08 02:31:01;;;;;;;60.60;25.70;;;;;;;-7.40;100.00;100806.94;4189743;28;20047;-74
2023/02/08 02:33:07;;;;;;;86.20;25.67;;;;;;;-7.46;100.00;100805.06;4190272;28;20052;-74
2023/02/08 02:35:17;;;;;;;57.92;26.30;;;;;;;-7.54;100.00;100798.00;4190510;28;20049;-74
2023/02/08 02:37:41;;;;;;;75.45;27.75;;;;;;;-7.68;100.00;100791.78;4190187;28;20079;-74
2023/02/08 02:40:11;;;;;;;65.50;25.88;;;;;;;-7.71;100.00;100792.16;4190528;28;20040;-74
2023/02/08 02:45:06;;;;;;;62.88;24.83;;;;;;;-7.89;100.00;100796.44;4190445;28;20047;-74
2023/02/08 02:47:37;;;;;;;66.60;24.38;;;;;;;-7.96;100.00;100794.56;4186583;28;20036;-74
2023/02/08 02:49:46;;;;;;;56.90;23.42;;;;;;;-7.98;100.00;100799.31;4190697;28;20473;-74
2023/02/08 02:52:00;;;;;;;74.22;26.05;;;;;;;-8.07;100.00;100780.88;4190156;28;20044;-73
2023/02/08 02:54:17;;;;;;;67.78;24.15;;;;;;;-8.05;100.00;100792.25;4192671;28;20443;-74
2023/02/08 02:56:22;;;;;;;63.30;25.38;;;;;;;-8.13;100.00;100782.50;4189654;28;20412;-73
2023/02/08 02:58:25;;;;;;;60.63;24.63;;;;;;;-8.14;100.00;100793.44;4189847;28;20030;-73
2023/02/08 03:00:27;;;;;;;56.63;23.95;;;;;;;-8.17;100.00;100788.50;4190837;28;20044;-73
2023/02/08 03:02:28;;;;;;;54.00;23.90;;;;;;;-8.17;100.00;100789.31;4190104;28;20370;-73
2023/02/08 03:04:31;;;;;;;59.03;23.73;;;;;;;-8.18;100.00;100802.97;4190487;28;20321;-74
2023/02/08 03:07:03;;;;;;;48.80;22.40;;;;;;;-8.18;100.00;100794.91;4189662;28;20098;-73
2023/02/08 03:09:42;;;;;;;50.50;21.83;;;;;;;-8.26;100.00;100801.25;4190755;28;20053;-73
2023/02/08 03:11:55;;;;;;;77.40;23.83;;;;;;;-8.33;100.00;100800.41;4175736;28;20082;-73
2023/02/08 03:14:41;;;;;;;78.72;25.08;;;;;;;-8.45;100.00;100794.75;4190908;28;20083;-73
2023/02/08 03:17:00;;;;;;;45.10;21.55;;;;;;;-8.45;100.00;100804.69;4137056;28;20116;-73
2023/02/08 03:19:15;;;;;;;54.65;22.35;;;;;;;-8.48;100.00;100791.66;4136027;28;20465;-73
2023/02/08 03:21:24;;;;;;;56.83;23.70;;;;;;;-8.50;100.00;100795.38;4153353;28;20044;-73
2023/02/08 03:23:35;;;;;;;50.08;22.48;;;;;;;-8.53;100.00;100787.69;4189417;28;20136;-73
2023/02/08 03:25:41;;;;;;;58.50;23.98;;;;;;;-8.52;100.00;100799.28;4194699;28;20045;-73
2023/02/08 03:28:06;;;;;;;52.63;22.90;;;;;;;-8.50;100.00;100797.22;4190681;28;20055;-73
2023/02/08 03:30:20;;;;;;;43.80;20.13;;;;;;;-8.51;100.00;100801.78;4189400;28;20049;-74
2023/02/08 03:32:54;;;;;;;51.10;23.80;;;;;;;-8.55;100.00;100805.84;4190186;28;20029;-73
2023/02/08 03:35:00;;;;;;;45.22;21.55;;;;;;;-8.56;100.00;100801.53;4192636;28;20094;-73
2023/02/08 03:37:06;;;;;;;63.00;23.13;;;;;;;-8.52;100.00;100807.34;4190140;28;20044;-73
2023/02/08 03:39:11;;;;;;;44.47;19.75;;;;;;;-8.54;100.00;100807.50;4190562;28;20476;-73
2023/02/08 03:41:18;;;;;;;47.90;21.85;;;;;;;-8.57;100.00;100807.09;4188991;28;20044;-73
2023/02/08 03:43:26;;;;;;;46.97;21.33;;;;;;;-8.60;100.00;100804.81;4194362;28;20063;-73
2023/02/08 03:45:34;;;;;;;65.13;20.85;;;;;;;-8.57;100.00;100812.47;4192601;28;20037;-73
2023/02/08 03:47:38;;;;;;;59.10;21.40;;;;;;;-8.62;100.00;100813.03;4193276;28;20040;-73
2023/02/08 03:49:41;;;;;;;54.60;22.10;;;;;;;-8.56;100.00;100808.75;4192423;28;20040;-73
2023/02/08 03:51:43;;;;;;;41.25;19.70;;;;;;;-8.53;100.00;100805.66;4191664;28;20047;-74
2023/02/08 03:53:45;;;;;;;51.80;21.65;;;;;;;-8.48;100.00;100816.66;4193347;28;20056;-73
2023/02/08 03:55:47;;;;;;;;;;;;;;;-8.44;100.00;100812.53;4193834;28;20444;-72
2023/02/08 03:57:50;;;;;;;44.42;18.77;;;;;;;-8.36;100.00;100820.41;4192438;28;19922;-73
2023/02/08 03:59:59;;;;;;;62.17;22.48;;;;;;;-8.22;100.00;100822.13;4195866;28;20154;-73
2023/02/08 04:02:05;;;;;;;49.15;21.30;;;;;;;-8.14;100.00;100825.69;4192118;28;20052;-74
2023/02/08 04:04:06;;;;;;;60.65;23.17;;;;;;;-8.17;100.00;100826.09;4190783;28;20082;-75
2023/02/08 04:06:07;;;;;;;57.33;22.10;;;;;;;-8.13;100.00;100830.03;4192862;28;20469;-75
2023/02/08 04:08:07;;;;;;;56.20;22.95;;;;;;;-8.13;100.00;100830.84;4193172;28;20024;-74
2023/02/08 04:10:08;;;;;;;54.90;24.77;;;;;;;-8.10;100.00;100824.28;4193483;28;20312;-74
2023/02/08 04:12:09;;;;;;;48.78;21.10;;;;;;;-8.07;100.00;100822.00;4192984;28;20043;-74
2023/02/08 04:14:09;;;;;;;59.47;23.50;;;;;;;-8.09;100.00;100828.63;4192352;28;20029;-74
2023/02/08 04:16:12;;;;;;;53.00;23.17;;;;;;;-8.12;100.00;100829.81;4192832;28;20024;-74
2023/02/08 04:18:13;;;;;;;44.25;21.00;;;;;;;-8.12;100.00;100827.13;4192835;28;20145;-74
2023/02/08 04:20:13;;;;;;;55.40;22.15;;;;;;;-8.05;100.00;100828.00;4192718;28;20508;-74
2023/02/08 04:22:13;;;;;;;50.95;22.85;;;;;;;-7.97;100.00;100822.47;4193558;28;20028;-74
2023/02/08 04:24:14;;;;;;;54.97;21.92;;;;;;;-7.96;100.00;100826.81;4192176;28;20115;-74
2023/02/08 04:26:14;;;;;;;48.30;21.27;;;;;;;-7.96;100.00;100828.66;4192631;28;20135;-73
2023/02/08 04:28:14;;;;;;;49.28;22.45;;;;;;;-7.95;100.00;100814.19;4192045;28;20356;-74
2023/02/08 04:30:14;;;;;;;49.53;22.65;;;;;;;-7.96;100.00;100817.91;4193309;28;20444;-74
2023/02/08 04:32:15;;;;;;;45.47;22.00;;;;;;;-7.95;100.00;100815.03;4192474;28;20031;-74
2023/02/08 04:34:15;;;;;;;49.50;21.48;;;;;;;-7.98;100.00;100811.91;4191654;28;20029;-74
2023/02/08 04:36:15;;;;;;;46.60;20.55;;;;;;;-7.96;100.00;100816.06;4192686;28;20096;-74
2023/02/08 04:38:16;;;;;;;48.38;21.23;;;;;;;-7.95;100.00;100808.81;4192285;28;20113;-74
2023/02/08 04:40:16;;;;;;;49.25;21.95;;;;;;;-7.91;100.00;100807.41;4192603;28;20344;-74
2023/02/08 04:42:17;;;;;;;52.42;21.73;;;;;;;-7.92;100.00;100803.06;4192307;28;20036;-74
2023/02/08 04:44:17;;;;;;;47.40;21.30;;;;;;;-7.94;100.00;100813.19;4191932;28;20028;-74
2023/02/08 04:46:17;;;;;;;48.70;20.90;;;;;;;-7.98;100.00;100817.28;4189629;28;20024;-74
2023/02/08 04:48:18;;;;;;;48.40;20.83;;;;;;;-8.03;100.00;100811.69;4190744;28;20099;-74
2023/02/08 04:50:19;;;;;;;49.80;20.73;;;;;;;-8.00;100.00;100804.06;4197699;28;20496;-74
2023/02/08 04:52:19;;;;;;;55.83;21.75;;;;;;;-7.97;100.00;100808.19;4194065;28;20027;-74
2023/02/08 04:54:20;;;;;;;54.42;22.10;;;;;;;-7.97;100.00;100810.88;4190975;28;20025;-74
2023/02/08 04:56:20;;;;;;;60.30;24.13;;;;;;;-8.02;100.00;100811.50;4192216;28;20052;-74
2023/02/08 04:58:21;;;;;;;49.88;21.38;;;;;;;-8.02;100.00;100816.06;4193735;28;20053;-74
2023/02/08 05:00:22;;;;;;;66.40;26.33;;;;;;;-8.08;100.00;100803.41;4192121;28;21008;-74
2023/02/08 05:02:22;;;;;;;59.83;24.40;;;;;;;-8.13;100.00;100803.16;4193423;28;20051;-74
2023/02/08 05:04:22;;;;;;;53.80;24.00;;;;;;;-8.17;100.00;100810.81;4192139;28;20122;-74
2023/02/08 05:06:23;;;;;;;61.50;24.58;;;;;;;-8.09;100.00;100799.91;4193838;28;20114;-74
2023/02/08 05:08:23;;;;;;;59.72;23.67;;;;;;;-8.14;100.00;100796.13;4195523;28;20033;-74
2023/02/08 05:10:24;;;;;;;60.17;24.75;;;;;;;-8.11;100.00;100796.56;4192991;28;20044;-74
2023/02/08 05:12:25;;;;;;;53.42;22.75;;;;;;;-8.21;100.00;100799.63;4193326;28;20037;-74
2023/02/08 05:14:25;;;;;;;67.82;24.50;;;;;;;-8.25;100.00;100800.22;4195223;28;20429;-74
2023/02/08 05:16:25;;;;;;;61.80;25.52;;;;;;;-8.18;100.00;100793.03;4194136;28;20028;-74
2023/02/08 05:18:26;;;;;;;61.97;26.58;;;;;;;-8.25;100.00;100784.94;4191417;28;20381;-74
2023/02/08 05:20:27;;;;;;;57.58;25.05;;;;;;;-8.36;100.00;100788.19;4193749;28;20472;-74
2023/02/08 05:22:27;;;;;;;58.08;25.85;;;;;;;-8.47;100.00;100802.19;4192813;28;20615;-74
2023/02/08 05:24:27;;;;;;;68.07;27.30;;;;;;;-8.59;100.00;100788.50;4191619;28;20051;-74
2023/02/08 05:26:28;;;;;;;67.53;29.60;;;;;;;-8.71;100.00;100786.53;4195328;28;20491;-74
2023/02/08 05:28:28;;;;;;;67.82;29.05;;;;;;;-8.80;100.00;100792.06;4193400;28;20032;-74
2023/02/08 05:30:28;;;;;;;64.50;25.92;;;;;;;-8.87;100.00;100793.88;4194638;28;20075;-74
2023/02/08 05:32:28;;;;;;;61.83;27.33;;;;;;;-8.91;100.00;100789.09;4192124;28;20079;-74
2023/02/08 05:34:29;;;;;;;69.35;29.92;;;;;;;-8.97;100.00;100795.22;4195686;28;20392;-74
2023/02/08 05:36:29;;;;;;;84.90;31.02;;;;;;;-9.03;100.00;100790.63;4193498;28;20562;-74
2023/02/08 05:38:30;;;;;;;80.03;29.73;;;;;;;-9.08;100.00;100789.38;4196383;28;20071;-74
2023/02/08 05:40:30;;;;;;;66.70;27.38;;;;;;;-9.10;100.00;100793.25;4187949;28;20063;-74
2023/02/08 05:42:31;;;;;;;68.55;28.60;;;;;;;-9.14;100.00;100794.69;4193827;28;20036;-74
2023/02/08 05:44:31;;;;;;;62.58;25.33;;;;;;;-9.23;100.00;100788.63;4194204;28;20036;-74
2023/02/08 05:46:32;;;;;;;72.85;27.55;;;;;;;-9.30;100.00;100793.09;4193395;28;20773;-74
2023/02/08 05:48:32;;;;;;;49.65;23.05;;;;;;;-9.38;100.00;100798.59;4196852;28;20039;-74
2023/02/08 05:50:33;;;;;;;67.68;25.35;;;;;;;-9.43;100.00;100798.31;4194050;28;20119;-74
2023/02/08 05:52:33;;;;;;;55.40;23.92;;;;;;;-9.48;100.00;100801.59;4192530;28;20430;-74
2023/02/08 05:54:34;;;;;;;56.78;24.25;;;;;;;-9.54;100.00;100798.84;4192817;28;20036;-74
2023/02/08 05:56:34;;;;;;;52.50;24.15;;;;;;;-9.57;100.00;100804.59;4135458;28;20064;-73
2023/02/08 05:58:34;;;;;;;57.92;23.95;;;;;;;-9.63;100.00;100807.00;4149974;28;20048;-74
2023/02/08 06:00:34;;;;;;;58.03;23.42;;;;;;;-9.69;100.00;100807.75;4191299;28;20404;-74
2023/02/08 06:02:36;;;;;;;58.15;22.15;;;;;;;-9.73;100.00;100801.13;4188440;28;20044;-74
2023/02/08 06:04:36;;;;;;;54.40;19.88;;;;;;;-9.77;100.00;100802.50;4195358;28;20043;-73
2023/02/08 06:06:36;;;;;;;44.80;19.67;;;;;;;-9.75;100.00;100813.06;4188239;28;20032;-73
2023/02/08 06:08:38;;;;;;;49.20;21.65;;;;;;;-9.76;100.00;100806.00;4193860;28;20036;-74
2023/02/08 06:10:38;;;;;;;43.13;18.83;;;;;;;-9.72;100.00;100812.66;4191021;28;21028;-73
2023/02/08 06:12:38;;;;;;;45.17;18.25;;;;;;;-9.68;100.00;100820.16;4189845;28;20535;-73
2023/02/08 06:14:39;;;;;;;48.10;20.02;;;;;;;-9.67;100.00;100821.81;4190849;28;20882;-73
2023/02/08 06:16:39;;;;;;;51.00;21.60;;;;;;;-9.65;100.00;100821.59;4194480;28;20698;-73
2023/02/08 06:18:39;;;;;;;63.95;25.80;;;;;;;-9.56;100.00;100808.91;4192420;28;20060;-73
2023/02/08 06:20:40;;;;;;;117.72;36.55;;;;;;;-9.54;100.00;100821.09;4196574;28;20083;-73
2023/02/08 06:22:40;;;;;;;111.15;37.10;;;;;;;-9.56;100.00;100816.97;4191016;28;20052;-73
2023/02/08 06:24:41;;;;;;;80.05;29.90;;;;;;;-9.56;100.00;100825.00;4189837;28;20119;-73
2023/02/08 06:26:42;;;;;;;88.57;32.55;;;;;;;-9.61;100.00;100822.88;4190661;28;20421;-73
2023/02/08 06:28:42;;;;;;;70.82;28.92;;;;;;;-9.60;100.00;100827.22;4156309;28;20052;-73
2023/02/08 06:30:43;;;;;;;53.97;24.23;;;;;;;-9.62;100.00;100829.25;4190100;28;20136;-73
2023/02/08 06:32:43;;;;;;;48.58;21.92;;;;;;;-9.65;100.00;100822.44;4188403;28;20052;-74
2023/02/08 06:34:44;;;;;;;52.83;20.42;;;;;;;-9.66;100.00;100822.63;4190685;28;20109;-73
2023/02/08 06:36:44;;;;;;;47.85;21.25;;;;;;;-9.67;100.00;100829.84;4189233;28;20114;-73
2023/02/08 06:38:45;;;;;;;49.60;21.27;;;;;;;-9.67;100.00;100829.00;4190319;28;20049;-73
2023/02/08 06:40:46;;;;;;;57.95;24.83;;;;;;;-9.65;100.00;100824.28;4191230;28;20083;-73
2023/02/08 06:42:47;;;;;;;56.08;24.40;;;;;;;-9.65;100.00;100818.94;4190300;28;20062;-73
2023/02/08 06:44:49;;;;;;;60.28;23.27;;;;;;;-9.54;100.00;100823.78;4190822;28;20048;-73
2023/02/08 06:46:49;;;;;;;66.53;25.70;;;;;;;-9.33;100.00;100825.66;4190645;28;20260;-73
2023/02/08 06:48:49;;;;;;;71.00;29.85;;;;;;;-9.26;100.00;100815.84;4191045;28;20048;-73
2023/02/08 06:50:54;;;;;;;70.35;29.08;;;;;;;-9.22;100.00;100811.72;4190961;28;20043;-74
2023/02/08 06:52:54;;;;;;;60.67;25.70;;;;;;;-9.16;100.00;100816.34;4189965;28;20049;-74
2023/02/08 06:54:54;;;;;;;61.10;26.63;;;;;;;-9.03;100.00;100822.81;4196746;28;20090;-74
2023/02/08 06:56:54;;;;;;;56.88;24.48;;;;;;;-9.02;100.00;100825.31;4191304;28;20029;-73
2023/02/08 06:58:55;;;;;;;61.47;25.23;;;;;;;-9.01;100.00;100820.81;4190312;28;20515;-73
2023/02/08 07:00:56;;;;;;;56.40;23.48;;;;;;;-8.95;100.00;100820.81;4190286;28;20393;-74
2023/02/08 07:02:57;;;;;;;57.85;24.42;;;;;;;-8.97;100.00;100820.19;4190619;28;20056;-74
2023/02/08 07:04:58;;;;;;;54.10;24.27;;;;;;;-8.89;100.00;100822.75;4190237;28;20069;-74
2023/02/08 07:06:58;;;;;;;55.78;22.85;;;;;;;-8.83;100.00;100823.84;4190715;28;20099;-74
2023/02/08 07:08:59;;;;;;;55.17;24.27;;;;;;;-8.78;100.00;100818.69;4195217;28;20043;-74
2023/02/08 07:10:59;;;;;;;53.40;22.10;;;;;;;-8.84;100.00;100822.19;4191499;28;20044;-74
2023/02/08 07:13:01;;;;;;;47.60;20.67;;;;;;;-8.90;100.00;100825.63;4189754;28;20053;-74
2023/02/08 07:15:02;;;;;;;50.70;21.83;;;;;;;-8.93;100.00;100818.81;4190891;28;20376;-74
2023/02/08 07:17:03;;;;;;;43.33;20.10;;;;;;;-8.89;100.00;100830.78;4192685;28;20040;-74
2023/02/08 07:19:03;;;;;;;50.22;20.55;;;;;;;-8.86;100.00;100818.84;4193849;28;20029;-74
2023/02/08 07:21:04;;;;;;;50.95;20.30;;;;;;;-8.86;100.00;100816.97;4193846;28;20060;-74
2023/02/08 07:23:04;;;;;;;51.00;20.13;;;;;;;-8.93;100.00;100813.44;4192780;28;20131;-74
2023/02/08 07:25:06;;;;;;;42.03;18.30;;;;;;;-8.92;100.00;100811.59;4193587;28;20368;-74
2023/02/08 07:27:09;;;;;;;43.50;19.08;;;;;;;-8.82;100.00;100804.03;4193543;28;20068;-74
2023/02/08 07:29:09;;;;;;;;;;;;;;;-8.73;100.00;100804.69;4193659;28;20044;-74
2023/02/08 07:31:12;;;;;;;47.97;16.95;;;;;;;-8.66;100.00;100806.41;4194032;28;19924;-74
2023/02/08 07:33:12;;;;;;;43.90;18.55;;;;;;;-8.75;100.00;100804.06;4193314;28;20532;-74
2023/02/08 07:35:13;;;;;;;43.97;18.65;;;;;;;-8.75;100.00;100804.06;4193677;28;20097;-74
2023/02/08 07:37:13;;;;;;;47.38;20.23;;;;;;;-8.71;100.00;100811.53;4193462;28;20153;-74
2023/02/08 07:39:14;;;;;;;43.00;18.15;;;;;;;-8.71;100.00;100802.66;4193789;28;20079;-74
2023/02/08 07:41:14;;;;;;;44.17;19.35;;;;;;;-8.65;100.00;100809.91;4193773;28;20068;-74
2023/02/08 07:43:14;;;;;;;39.80;18.83;;;;;;;-8.69;100.00;100808.63;4192186;28;20039;-74
2023/02/08 07:45:15;;;;;;;50.50;22.92;;;;;;;-8.66;100.00;100810.94;4195210;28;20258;-74
2023/02/08 07:47:16;;;;;;;52.47;23.17;;;;;;;-8.63;100.00;100821.28;4193574;28;20055;-74
2023/02/08 07:49:16;;;;;;;53.42;24.67;;;;;;;-8.60;100.00;100811.00;4196570;28;20048;-74
2023/02/08 07:51:17;;;;;;;53.42;22.88;;;;;;;-8.52;100.00;100813.53;4193275;28;20032;-74
2023/02/08 07:53:17;;;;;;;56.25;24.90;;;;;;;-8.48;100.00;100802.41;4192983;28;20036;-74
2023/02/08 07:55:19;;;;;;;53.83;23.00;;;;;;;-8.51;100.00;100800.94;4193448;28;20068;-74
2023/02/08 07:57:19;;;;;;;50.43;23.93;;;;;;;-8.45;100.00;100804.69;4193596;28;20453;-74
2023/02/08 07:59:20;;;;;;;56.00;22.67;;;;;;;-8.41;100.00;100800.59;4193195;28;20482;-74
2023/02/08 08:01:20;;;;;;;58.97;24.65;;;;;;;-8.33;100.00;100808.44;4193291;28;20044;-74
2023/02/08 08:03:21;;;;;;;52.85;24.08;;;;;;;-8.30;100.00;100805.34;4192131;28;20060;-74
2023/02/08 08:05:22;;;;;;;53.45;23.70;;;;;;;-8.28;100.00;100816.72;4193417;28;20123;-74
2023/02/08 08:07:22;;;;;;;55.00;23.80;;;;;;;-8.28;100.00;100811.34;4196220;28;20054;-74
2023/02/08 08:09:23;;;;;;;47.90;22.58;;;;;;;-8.24;100.00;100809.94;4193299;28;20131;-74
2023/02/08 08:11:23;;;;;;;49.45;22.38;;;;;;;-8.20;100.00;100813.88;4194258;28;20797;-74
2023/02/08 08:13:23;;;;;;;53.75;24.73;;;;;;;-8.16;100.00;100798.22;4192601;28;20203;-74
2023/02/08 08:15:24;;;;;;;54.72;22.48;;;;;;;-8.11;100.00;100793.88;4192874;28;20503;-74
2023/02/08 08:17:24;;;;;;;51.63;23.77;;;;;;;-8.07;100.00;100792.47;4193016;28;20041;-74
2023/02/08 08:19:25;;;;;;;48.97;24.00;;;;;;;-8.04;100.00;100797.41;4193208;28;20052;-74
2023/02/08 08:21:25;;;;;;;48.22;22.75;;;;;;;-8.05;100.00;100801.13;4192606;28;20040;-74
2023/02/08 08:23:27;;;;;;;50.00;22.20;;;;;;;-8.04;100.00;100789.38;4192476;28;20040;-74
2023/02/08 08:25:28;;;;;;;46.22;21.15;;;;;;;-7.97;100.00;100798.28;4192083;28;20051;-74
2023/02/08 08:27:28;;;;;;;48.58;22.20;;;;;;;-7.98;100.00;100788.56;4192986;28;20080;-74
2023/02/08 08:29:31;;;;;;;52.75;22.17;;;;;;;-7.87;100.00;100783.63;4193004;28;20115;-74
2023/02/08 08:31:31;;;;;;;52.53;22.98;;;;;;;-7.88;100.00;100780.13;4192246;28;20049;-74
2023/02/08 08:33:32;;;;;;;50.78;22.00;;;;;;;-7.92;100.00;100790.47;4192144;28;20045;-74
2023/02/08 08:35:32;;;;;;;48.08;22.92;;;;;;;-7.89;100.00;100786.53;4196992;28;20032;-74
2023/02/08 08:37:33;;;;;;;47.85;24.08;;;;;;;-7.86;100.00;100779.91;4192883;28;20044;-74
2023/02/08 08:39:34;;;;;;;47.25;23.10;;;;;;;-7.86;100.00;100787.97;4192503;28;20045;-74
2023/02/08 08:41:35;;;;;;;49.05;23.83;;;;;;;-7.85;100.00;100795.03;4192642;28;20377;-74
2023/02/08 08:43:36;;;;;;;54.58;25.33;;;;;;;-7.81;100.00;100798.97;4191964;28;20079;-74
2023/02/08 08:45:37;;;;;;;45.70;22.33;;;;;;;-7.81;100.00;100790.91;4192592;28;20048;-74
2023/02/08 08:47:37;;;;;;;55.20;22.45;;;;;;;-7.81;100.00;100789.03;4192747;28;20434;-74
2023/02/08 08:49:37;;;;;;;45.92;23.52;;;;;;;-7.78;100.00;100787.78;4192465;28;20192;-74
2023/02/08 08:51:38;;;;;;;42.05;20.90;;;;;;;-7.74;100.00;100795.28;4192568;28;20076;-74
2023/02/08 08:53:38;;;;;;;45.58;20.98;;;;;;;-7.71;100.00;100784.09;4191455;28;20032;-74
2023/02/08 08:55:38;;;;;;;33.10;15.93;;;;;;;-7.69;100.00;100790.13;4192980;28;20110;-74
2023/02/08 08:57:39;;;;;;;39.67;18.88;;;;;;;-7.67;100.00;100773.78;4192130;28;20036;-74
2023/02/08 08:59:39;;;;;;;37.08;18.02;;;;;;;-7.58;100.00;100787.88;4194344;28;20052;-74
2023/02/08 09:01:41;;;;;;;40.05;18.17;;;;;;;-7.56;100.00;100785.81;4197068;28;20547;-74
2023/02/08 09:03:41;;;;;;;38.55;18.50;;;;;;;-7.53;100.00;100797.00;4191506;28;20499;-74
2023/02/08 09:05:41;;;;;;;44.70;20.48;;;;;;;-7.47;100.00;100792.66;4192414;28;20028;-74
2023/02/08 09:07:42;;;;;;;36.72;18.05;;;;;;;-7.43;100.00;100791.22;4192718;28;20250;-74
2023/02/08 09:09:46;;;;;;;41.17;19.33;;;;;;;-7.37;100.00;100790.38;4192293;28;20048;-74
2023/02/08 09:11:47;;;;;;;36.17;17.17;;;;;;;-7.28;100.00;100793.69;4193902;28;20456;-74
2023/02/08 09:13:51;;;;;;;40.67;18.55;;;;;;;-7.26;100.00;100789.78;4191353;28;20040;-74
2023/02/08 09:15:52;;;;;;;39.22;17.35;;;;;;;-7.19;100.00;100792.50;4194997;28;20044;-74